createdAt,value
2019-04-28T00:01:17.706Z,69.16
2019-04-28T00:06:21.247Z,68.33
2019-04-28T00:11:24.629Z,68.71
2019-04-28T00:16:28.019Z,68.76
2019-04-28T00:21:45.104Z,68.79
2019-04-28T00:26:51.936Z,69.32
2019-04-28T00:31:55.392Z,69.30
2019-04-28T00:37:01.313Z,68.70
2019-04-28T00:42:05.023Z,68.68
2019-04-28T00:47:08.915Z,68.88
2019-04-28T00:52:14.251Z,68.81
2019-04-28T00:57:17.876Z,69.19
2019-04-28T01:02:22.899Z,68.94
2019-04-28T01:07:26.300Z,68.50
2019-04-28T01:12:31.101Z,68.45
2019-04-28T01:17:36.250Z,67.92
2019-04-28T01:22:40.196Z,68.16
2019-04-28T01:27:45.240Z,67.90
2019-04-28T01:32:59.668Z,67.95
2019-04-28T01:38:03.037Z,67.94
2019-04-28T01:43:06.593Z,67.94
2019-04-28T01:48:10.216Z,67.99
2019-04-28T01:53:13.840Z,68.10
2019-04-28T01:58:17.229Z,68.31
2019-04-28T02:03:20.722Z,68.84
2019-04-28T02:08:24.081Z,68.90
2019-04-28T02:13:27.468Z,68.58
2019-04-28T02:18:31.024Z,68.37
2019-04-28T02:23:36.283Z,68.30
2019-04-28T02:28:40.733Z,68.24
2019-04-28T02:33:44.138Z,67.99
2019-04-28T02:38:47.756Z,68.16
2019-04-28T02:43:51.240Z,68.35
2019-04-28T02:48:54.624Z,68.36
2019-04-28T02:54:00.499Z,68.31
2019-04-28T02:59:03.342Z,68.48
2019-04-28T03:04:06.974Z,68.50
2019-04-28T03:09:10.697Z,68.28
2019-04-28T03:14:14.167Z,68.02
2019-04-28T03:19:17.638Z,67.76
2019-04-28T03:24:22.213Z,67.51
2019-04-28T03:29:35.944Z,67.21
2019-04-28T03:34:44.490Z,66.99
2019-04-28T03:39:50.418Z,66.94
2019-04-28T03:44:53.746Z,66.82
2019-04-28T03:49:57.151Z,67.03
2019-04-28T03:55:00.822Z,66.88
2019-04-28T04:00:07.421Z,66.94
2019-04-28T04:05:11.337Z,66.99
2019-04-28T04:10:36.531Z,67.09
2019-04-28T04:15:57.150Z,67.39
2019-04-28T04:21:00.907Z,67.51
2019-04-28T04:26:04.403Z,67.56
2019-04-28T04:31:10.233Z,67.54
2019-04-28T04:36:13.092Z,67.79
2019-04-28T04:41:16.708Z,68.51
2019-04-28T04:46:22.395Z,68.59
2019-04-28T04:51:26.095Z,69.00
2019-04-28T04:56:30.151Z,69.00
2019-04-28T05:01:35.623Z,69.10
2019-04-28T05:06:42.307Z,69.15
2019-04-28T05:11:45.693Z,68.84
2019-04-28T05:16:49.730Z,68.85
2019-04-28T05:21:53.143Z,68.82
2019-04-28T05:26:56.526Z,68.63
2019-04-28T05:32:03.265Z,68.10
2019-04-28T05:37:05.257Z,67.77
2019-04-28T05:42:09.765Z,67.80
2019-04-28T05:47:13.987Z,68.00
2019-04-28T05:52:35.004Z,68.35
2019-04-28T05:57:40.261Z,68.50
2019-04-28T06:02:55.936Z,68.20
2019-04-28T06:07:52.830Z,67.81
2019-04-28T06:12:56.456Z,66.63
2019-04-28T06:18:00.205Z,66.91
2019-04-28T06:23:03.544Z,66.40
2019-04-28T06:28:06.999Z,65.67
2019-04-28T06:33:10.388Z,66.01
2019-04-28T06:38:14.007Z,65.14
2019-04-28T06:43:17.393Z,66.42
2019-04-28T06:48:21.037Z,65.96
2019-04-28T06:53:24.441Z,67.00
2019-04-28T06:58:27.840Z,66.97
2019-04-28T07:03:31.242Z,65.90
2019-04-28T07:08:34.659Z,65.30
2019-04-28T07:13:38.051Z,65.96
2019-04-28T07:18:41.436Z,66.07
2019-04-28T07:23:45.127Z,64.99
2019-04-28T07:28:48.523Z,64.48
2019-04-28T07:33:52.147Z,64.41
2019-04-28T07:38:55.533Z,63.11
2019-04-28T07:43:58.915Z,63.16
2019-04-28T07:49:02.316Z,61.78
2019-04-28T07:54:07.343Z,60.47
2019-04-28T07:59:10.753Z,60.26
2019-04-28T08:04:14.156Z,59.72
2019-04-28T08:09:18.632Z,60.56
2019-04-28T08:14:22.035Z,60.17
2019-04-28T08:19:25.417Z,59.84
2019-04-28T08:24:28.823Z,62.42
2019-04-28T08:29:32.448Z,60.18
2019-04-28T08:34:35.837Z,58.93
2019-04-28T08:39:39.465Z,58.68
2019-04-28T08:44:42.853Z,58.05
2019-04-28T08:49:46.714Z,57.10
2019-04-28T08:54:50.110Z,54.51
2019-04-28T08:59:53.501Z,53.80
2019-04-28T09:04:56.893Z,55.22
2019-04-28T09:10:00.358Z,54.57
2019-04-28T09:15:04.986Z,53.78
2019-04-28T09:20:08.715Z,52.03
2019-04-28T09:25:12.100Z,50.92
2019-04-28T09:30:15.761Z,52.77
2019-04-28T09:35:19.155Z,49.57
2019-04-28T09:40:22.543Z,49.53
2019-04-28T09:45:36.412Z,47.69
2019-04-28T09:50:39.800Z,49.99
2019-04-28T09:55:43.191Z,48.05
2019-04-28T10:00:46.577Z,47.91
2019-04-28T10:05:50.209Z,48.83
2019-04-28T10:10:53.595Z,45.94
2019-04-28T10:15:57.226Z,44.87
2019-04-28T10:21:00.615Z,43.76
2019-04-28T10:26:04.084Z,45.77
2019-04-28T10:31:08.343Z,46.03
2019-04-28T10:36:12.470Z,45.62
2019-04-28T10:41:20.161Z,45.72
2019-04-28T10:46:23.798Z,45.45
2019-04-28T10:51:27.189Z,45.38
2019-04-28T10:56:30.835Z,44.20
2019-04-28T11:01:34.246Z,43.71
2019-04-28T11:06:37.868Z,44.51
2019-04-28T11:11:41.340Z,43.69
2019-04-28T11:16:45.312Z,43.72
2019-04-28T11:21:48.716Z,42.51
2019-04-28T11:26:52.115Z,42.58
2019-04-28T11:31:55.509Z,42.87
2019-04-28T11:36:58.896Z,44.37
2019-04-28T11:42:02.296Z,43.48
2019-04-28T11:47:07.633Z,43.92
2019-04-28T11:52:11.282Z,41.73
2019-04-28T11:57:14.673Z,41.25
2019-04-28T12:02:18.080Z,40.73
2019-04-28T12:07:21.554Z,40.93
2019-04-28T12:12:35.469Z,42.72
2019-04-28T12:18:04.242Z,42.34
2019-04-28T12:23:09.771Z,42.18
2019-04-28T12:28:12.928Z,43.82
2019-04-28T12:33:16.349Z,46.43
2019-04-28T12:38:19.743Z,47.08
2019-04-28T12:43:23.368Z,46.38
2019-04-28T12:48:26.757Z,44.72
2019-04-28T12:53:30.497Z,44.62
2019-04-28T12:58:34.129Z,43.83
2019-04-28T13:03:45.096Z,44.37
2019-04-28T13:08:48.485Z,43.20
2019-04-28T13:13:52.115Z,42.69
2019-04-28T13:18:55.499Z,43.73
2019-04-28T13:23:58.894Z,43.07
2019-04-28T13:29:02.292Z,43.74
2019-04-28T13:34:07.333Z,43.37
2019-04-28T13:39:12.419Z,43.61
2019-04-28T13:44:17.445Z,43.75
2019-04-28T13:49:22.500Z,43.83
2019-04-28T13:54:25.877Z,43.91
2019-04-28T13:59:29.269Z,43.80
2019-04-28T14:04:40.285Z,44.28
2019-04-28T14:09:43.701Z,41.15
2019-04-28T14:14:47.052Z,38.12
2019-04-28T14:19:50.466Z,39.55
2019-04-28T14:24:53.871Z,39.23
2019-04-28T14:29:57.221Z,38.39
2019-04-28T14:35:00.653Z,40.02
2019-04-28T14:40:06.221Z,39.87
2019-04-28T14:45:10.031Z,40.06
2019-04-28T14:50:13.520Z,41.17
2019-04-28T14:55:17.317Z,40.91
2019-04-28T15:00:37.546Z,40.32
2019-04-28T15:05:42.875Z,41.24
2019-04-28T15:10:51.167Z,41.34
2019-04-28T15:15:54.545Z,40.31
2019-04-28T15:20:57.945Z,38.70
2019-04-28T15:26:01.340Z,38.00
2019-04-28T15:31:04.764Z,36.33
2019-04-28T15:36:08.421Z,36.24
2019-04-28T15:41:21.397Z,36.24
2019-04-28T15:46:17.232Z,36.45
2019-04-28T15:51:20.632Z,35.75
2019-04-28T15:56:25.970Z,36.51
2019-04-28T16:01:29.379Z,38.71
2019-04-28T16:06:33.047Z,39.46
2019-04-28T16:11:36.473Z,40.52
2019-04-28T16:16:39.906Z,41.54
2019-04-28T16:21:43.283Z,42.28
2019-04-28T16:26:46.680Z,42.99
2019-04-28T16:31:50.086Z,43.23
2019-04-28T16:36:53.513Z,43.64
2019-04-28T16:41:56.927Z,44.57
2019-04-28T16:47:00.348Z,44.48
2019-04-28T16:52:03.749Z,45.20
2019-04-28T16:57:08.806Z,45.63
2019-04-28T17:02:16.742Z,46.11
2019-04-28T17:07:20.252Z,46.26
2019-04-28T17:12:23.648Z,46.52
2019-04-28T17:17:27.045Z,46.66
2019-04-28T17:22:30.458Z,45.29
2019-04-28T17:27:33.865Z,44.93
2019-04-28T17:32:37.340Z,45.29
2019-04-28T17:37:40.812Z,45.52
2019-04-28T17:42:44.202Z,45.40
2019-04-28T17:47:48.414Z,45.66
2019-04-28T17:52:51.885Z,46.18
2019-04-28T17:57:55.268Z,46.75
2019-04-28T18:03:16.490Z,46.98
2019-04-28T18:08:21.376Z,47.51
2019-04-28T18:13:24.908Z,48.51
2019-04-28T18:18:35.627Z,50.10
2019-04-28T18:23:39.019Z,51.24
2019-04-28T18:28:42.450Z,51.57
2019-04-28T18:33:47.720Z,51.71
2019-04-28T18:38:52.774Z,52.67
2019-04-28T18:44:03.635Z,53.10
2019-04-28T18:49:07.014Z,53.37
2019-04-28T18:54:10.450Z,53.93
2019-04-28T18:59:13.841Z,54.57
2019-04-28T19:04:17.403Z,55.63
2019-04-28T19:09:25.328Z,55.96
2019-04-28T19:14:30.358Z,56.80
2019-04-28T19:19:35.412Z,57.07
2019-04-28T19:24:38.780Z,57.14
2019-04-28T19:29:42.422Z,57.67
2019-04-28T19:34:45.824Z,58.01
2019-04-28T19:39:49.300Z,58.23
2019-04-28T19:44:52.686Z,58.47
2019-04-28T19:49:56.067Z,58.91
2019-04-28T19:55:10.148Z,59.11
2019-04-28T20:00:25.283Z,59.45
2019-04-28T20:05:28.672Z,59.61
2019-04-28T20:10:32.200Z,59.89
2019-04-28T20:15:35.585Z,59.70
2019-04-28T20:20:38.971Z,59.81
2019-04-28T20:25:42.356Z,60.03
2019-04-28T20:30:45.791Z,60.34
2019-04-28T20:36:05.696Z,60.52
2019-04-28T20:41:13.213Z,61.04
2019-04-28T20:46:16.604Z,61.02
2019-04-28T20:51:20.224Z,61.35
2019-04-28T20:56:23.621Z,61.47
2019-04-28T21:01:27.240Z,61.96
2019-04-28T21:06:30.632Z,62.40
2019-04-28T21:11:34.022Z,62.45
2019-04-28T21:16:37.410Z,62.74
2019-04-28T21:21:40.796Z,62.79
2019-04-28T21:26:44.181Z,63.25
2019-04-28T21:31:47.804Z,63.43
2019-04-28T21:36:51.188Z,63.48
2019-04-28T21:41:55.544Z,63.79
2019-04-28T21:47:16.560Z,63.71
2019-04-28T21:52:19.943Z,63.69
2019-04-28T21:57:23.332Z,63.72
2019-04-28T22:02:26.720Z,63.56
2019-04-28T22:07:30.107Z,63.41
2019-04-28T22:12:34.378Z,63.21
2019-04-28T22:17:37.768Z,63.04
2019-04-28T22:22:41.149Z,63.05
2019-04-28T22:27:44.533Z,62.98
2019-04-28T22:32:47.921Z,63.25
2019-04-28T22:37:51.307Z,63.48
2019-04-28T22:42:54.926Z,63.61
2019-04-28T22:47:58.311Z,63.74
2019-04-28T22:53:01.696Z,63.73
2019-04-28T22:58:06.730Z,63.71
2019-04-28T23:03:18.636Z,64.19
2019-04-28T23:08:22.272Z,64.32
2019-04-28T23:13:25.651Z,64.17
2019-04-28T23:18:29.252Z,64.20
2019-04-28T23:23:32.826Z,64.54
2019-04-28T23:28:36.554Z,64.69
2019-04-28T23:33:39.942Z,64.82
2019-04-28T23:38:43.566Z,64.82
2019-04-28T23:43:46.944Z,64.89
2019-04-28T23:48:50.400Z,64.86
2019-04-28T23:53:58.530Z,64.98
2019-04-28T23:59:01.921Z,65.13
